Time;durP1;ratioP1;P1;durP2;ratioP2;P2;SDS_P1;SDS_P2;PMS_P1;PMS_P2;Temp;Humidity;BMP_temperature;BMP_pressure;BME280_temperature;BME280_humidity;BME280_pressure;Samples;Min_cycle;Max_cycle;Signal;HPM_P1;HPM_P2
2023/08/05 00:00:22;;;;;;;;;;;18.40;99.90;;;;;;4825082;29;20277;-91
2023/08/05 00:02:50;;;;;;;;;;;18.40;99.90;;;;;;4824045;29;19919;-91
2023/08/05 00:05:16;;;;;;;;;;;18.40;99.90;;;;;;4824189;29;19908;-90
2023/08/05 00:07:49;;;;;;;;;;;18.40;99.90;;;;;;4823828;29;19916;-91
2023/08/05 00:10:22;;;;;;;;;;;18.40;99.90;;;;;;4824673;29;19961;-92
2023/08/05 00:12:48;;;;;;;;;;;18.40;99.90;;;;;;4825087;29;20346;-92
2023/08/05 00:15:13;;;;;;;;;;;18.40;99.90;;;;;;4823712;29;19973;-91
2023/08/05 00:17:39;;;;;;;;;;;18.30;99.90;;;;;;4823383;29;19961;-91
2023/08/05 00:20:12;;;;;;;;;;;18.30;99.90;;;;;;4823180;29;20007;-92
2023/08/05 00:22:37;;;;;;;;;;;18.30;99.90;;;;;;4823664;29;19912;-92
2023/08/05 00:25:08;;;;;;;;;;;18.30;99.90;;;;;;4823350;29;19995;-92
2023/08/05 00:27:33;;;;;;;;;;;18.30;99.90;;;;;;4823462;29;19964;-91
2023/08/05 00:30:04;;;;;;;;;;;18.30;99.90;;;;;;4823254;29;20008;-91
2023/08/05 00:32:34;;;;;;;;;;;18.30;99.90;;;;;;4823474;29;19985;-92
2023/08/05 00:35:00;;;;;;;;;;;18.30;99.90;;;;;;4823197;29;19908;-91
2023/08/05 00:37:27;;;;;;;;;;;18.20;99.90;;;;;;4823224;29;19916;-92
2023/08/05 00:40:03;;;;;;;;;;;18.20;99.90;;;;;;4824890;29;20028;-91
2023/08/05 00:45:13;;;;;;;;;;;18.10;99.90;;;;;;4897309;27;6737937;-92
2023/08/05 00:47:41;;;;;;;;;;;18.10;99.90;;;;;;5101803;28;19912;-92
2023/08/05 00:50:13;;;;;;;;;;;18.10;99.90;;;;;;5115061;28;19912;-91
2023/08/05 00:52:47;;;;;;;;;;;18.10;99.90;;;;;;5114852;28;19933;-92
2023/08/05 00:55:23;;;;;;;;;;;;;;;;;;;;;
2023/08/05 00:57:54;;;;;;;;;;;18.10;99.90;;;;;;5134005;28;19914;-91
2023/08/05 01:03:06;;;;;;;;;;;18.10;99.90;;;;;;5124337;28;20301;-91
2023/08/05 01:05:39;;;;;;;;;;;18.10;99.90;;;;;;5133957;27;19924;-91
2023/08/05 01:08:07;;;;;;;;;;;18.10;99.90;;;;;;5132675;28;19915;-91
2023/08/05 01:10:42;;;;;;;;;;;18.10;99.90;;;;;;5114754;28;19930;-92
2023/08/05 01:13:26;;;;;;;;;;;18.10;99.90;;;;;;5114338;28;20460;-91
2023/08/05 01:15:54;;;;;;;;;;;18.10;99.90;;;;;;5097089;28;19912;-92
2023/08/05 01:18:45;;;;;;;;;;;18.10;99.90;;;;;;5097153;28;19912;-92
2023/08/05 01:21:24;;;;;;;;;;;18.10;99.90;;;;;;5114469;28;19970;-92
2023/08/05 01:24:19;;;;;;;;;;;18.10;99.90;;;;;;5114099;28;19911;-91
2023/08/05 01:26:54;;;;;;;;;;;18.10;99.90;;;;;;5114293;28;19959;-92
2023/08/05 01:29:26;;;;;;;;;;;18.10;99.90;;;;;;5113966;28;19921;-92
2023/08/05 01:31:53;;;;;;;;;;;18.10;99.90;;;;;;5113767;28;20347;-92
2023/08/05 01:34:25;;;;;;;;;;;18.10;99.90;;;;;;5114014;28;20351;-92
2023/08/05 01:36:50;;;;;;;;;;;18.10;99.90;;;;;;5113763;28;19919;-92
2023/08/05 01:39:16;;;;;;;;;;;18.10;99.90;;;;;;5114100;28;19908;-92
2023/08/05 01:42:04;;;;;;;;;;;18.10;99.90;;;;;;5113457;28;20372;-92
2023/08/05 01:44:37;;;;;;;;;;;18.10;99.90;;;;;;5113132;28;19993;-93
2023/08/05 01:47:08;;;;;;;;;;;18.10;99.90;;;;;;5095696;28;19911;-92
2023/08/05 01:49:44;;;;;;;;;;;;;;;;;;;;;
2023/08/05 01:52:15;;;;;;;;;;;18.10;99.90;;;;;;5131599;28;19908;-92
2023/08/05 01:57:54;;;;;;;;;;;18.00;99.90;;;;;;5103502;28;19961;-92
2023/08/05 02:00:22;;;;;;;;;;;18.00;99.90;;;;;;5083180;28;19912;-91
2023/08/05 02:02:50;;;;;;;;;;;18.00;99.90;;;;;;5099883;28;19912;-91
2023/08/05 02:05:23;;;;;;;;;;;18.00;99.90;;;;;;5099573;28;19958;-91
2023/08/05 02:08:02;;;;;;;;;;;;;;;;;;;;;
2023/08/05 02:10:28;;;;;;;;;;;18.00;99.90;;;;;;5117947;28;19908;-92
2023/08/05 02:13:04;;;;;;;;;;;18.00;99.90;;;;;;5099504;28;20011;-92
2023/08/05 02:15:45;;;;;;;;;;;;;;;;;;;;;
2023/08/05 02:18:24;;;;;;;;;;;;;;;;;;;;;
2023/08/05 02:20:53;;;;;;;;;;;18.00;99.90;;;;;;5117801;28;19908;-92
2023/08/05 02:23:35;;;;;;;;;;;18.00;99.90;;;;;;5099430;28;19912;-92
2023/08/05 02:26:22;;;;;;;;;;;18.00;99.90;;;;;;5099536;28;19971;-92
2023/08/05 02:28:52;;;;;;;;;;;18.00;99.90;;;;;;5117104;28;19998;-92
2023/08/05 02:31:38;;;;;;;;;;;18.00;99.90;;;;;;5099223;28;19911;-92
2023/08/05 02:34:06;;;;;;;;;;;18.00;99.90;;;;;;5116667;28;20243;-92
2023/08/05 02:36:42;;;;;;;;;;;18.00;99.90;;;;;;5099227;28;20353;-92
2023/08/05 02:39:10;;;;;;;;;;;18.00;99.90;;;;;;5098981;28;19908;-92
2023/08/05 02:41:36;;;;;;;;;;;18.00;99.90;;;;;;5097783;28;19907;-92
2023/08/05 02:44:12;;;;;;;;;;;18.00;99.90;;;;;;5098742;28;19928;-92
2023/08/05 02:46:40;;;;;;;;;;;18.00;99.90;;;;;;5098930;28;19912;-92
2023/08/05 02:49:28;;;;;;;;;;;17.90;99.90;;;;;;5081971;28;19958;-92
2023/08/05 02:52:15;;;;;;;;;;;;;;;;;;;;;
2023/08/05 02:54:56;;;;;;;;;;;17.90;99.90;;;;;;5116941;28;19934;-91
2023/08/05 02:57:52;;;;;;;;;;;;;;;;;;;;;
2023/08/05 03:00:31;;;;;;;;;;;17.90;99.90;;;;;;5109953;28;19930;-92
2023/08/05 03:03:09;;;;;;;;;;;;;;;;;;;;;
2023/08/05 03:05:37;;;;;;;;;;;17.80;99.90;;;;;;5100278;28;20282;-92
2023/08/05 03:11:02;;;;;;;;;;;17.80;99.90;;;;;;5116653;28;19914;-91
2023/08/05 03:13:30;;;;;;;;;;;17.80;99.90;;;;;;5098245;28;19915;-92
2023/08/05 03:16:06;;;;;;;;;;;;;;;;;;;;;
2023/08/05 03:18:48;;;;;;;;;;;17.70;99.90;;;;;;5116420;28;20393;-92
2023/08/05 03:21:32;;;;;;;;;;;17.70;99.90;;;;;;5082543;28;19934;-91
2023/08/05 03:24:03;;;;;;;;;;;17.70;99.90;;;;;;5098204;28;19933;-92
2023/08/05 03:26:48;;;;;;;;;;;17.70;99.90;;;;;;5098497;28;19959;-91
2023/08/05 03:29:16;;;;;;;;;;;17.60;99.90;;;;;;5098122;28;19995;-93
2023/08/05 03:32:01;;;;;;;;;;;;;;;;;;;;;
2023/08/05 03:34:30;;;;;;;;;;;17.60;99.90;;;;;;5116789;28;20370;-91
2023/08/05 03:37:04;;;;;;;;;;;17.60;99.90;;;;;;5098224;28;19914;-92
2023/08/05 03:39:30;;;;;;;;;;;17.60;99.90;;;;;;5081561;28;19977;-92
2023/08/05 03:42:19;;;;;;;;;;;17.60;99.90;;;;;;5098187;28;20360;-92
2023/08/05 03:45:05;;;;;;;;;;;17.50;99.90;;;;;;5097901;28;19920;-91
2023/08/05 03:47:40;;;;;;;;;;;17.50;99.90;;;;;;5098219;28;19911;-92
2023/08/05 03:50:28;;;;;;;;;;;;;;;;;;;;;
2023/08/05 03:52:58;;;;;;;;;;;17.50;99.90;;;;;;5121591;28;19975;-91
2023/08/05 03:55:39;;;;;;;;;;;;;;;;;;;;;
2023/08/05 03:58:08;;;;;;;;;;;17.50;99.90;;;;;;5117983;28;19951;-91
2023/08/05 04:00:41;;;;;;;;;;;17.40;99.90;;;;;;5086795;28;19965;-91
2023/08/05 04:03:07;;;;;;;;;;;17.40;99.90;;;;;;5096647;28;20384;-90
2023/08/05 04:05:47;;;;;;;;;;;17.40;99.90;;;;;;5097293;28;19915;-92
2023/08/05 04:08:17;;;;;;;;;;;17.40;99.90;;;;;;5097577;28;19908;-92
2023/08/05 04:11:11;;;;;;;;;;;;;;;;;;;;;
2023/08/05 04:13:39;;;;;;;;;;;17.30;99.90;;;;;;5115300;28;19915;-91
2023/08/05 04:16:10;;;;;;;;;;;17.30;99.90;;;;;;5097113;28;19954;-92
2023/08/05 04:18:50;;;;;;;;;;;;;;;;;;;;;
2023/08/05 04:21:28;;;;;;;;;;;;;;;;;;;;;
2023/08/05 04:23:59;;;;;;;;;;;17.30;99.90;;;;;;5099042;28;19919;-91
2023/08/05 04:26:35;;;;;;;;;;;17.20;99.90;;;;;;5080345;28;19962;-91
2023/08/05 04:29:06;;;;;;;;;;;17.20;99.90;;;;;;5097090;28;19912;-91
2023/08/05 04:31:48;;;;;;;;;;;17.20;99.90;;;;;;5096882;28;19908;-92
2023/08/05 04:34:14;;;;;;;;;;;17.30;99.90;;;;;;5096845;28;19954;-91
2023/08/05 04:39:43;;;;;;;;;;;17.30;99.90;;;;;;5115241;28;20046;-92
2023/08/05 04:42:21;;;;;;;;;;;17.30;99.90;;;;;;5097054;28;20006;-92
2023/08/05 04:44:54;;;;;;;;;;;17.30;99.90;;;;;;5093422;28;19920;-91
2023/08/05 04:47:32;;;;;;;;;;;;;;;;;;;;;
2023/08/05 04:50:07;;;;;;;;;;;17.30;99.90;;;;;;5094223;28;19914;-92
2023/08/05 04:52:40;;;;;;;;;;;17.30;99.90;;;;;;5093371;28;19916;-92
2023/08/05 04:55:15;;;;;;;;;;;17.40;99.90;;;;;;5076513;28;19919;-93
2023/08/05 04:57:53;;;;;;;;;;;17.30;99.90;;;;;;5093277;28;19912;-93
2023/08/05 05:00:21;;;;;;;;;;;17.40;99.90;;;;;;5093169;28;19915;-92
2023/08/05 05:05:44;;;;;;;;;;;17.40;99.90;;;;;;5079255;28;19920;-91
2023/08/05 05:08:14;;;;;;;;;;;17.40;99.90;;;;;;5076720;28;19919;-92
2023/08/05 05:10:46;;;;;;;;;;;17.40;99.90;;;;;;5076647;28;20233;-92
2023/08/05 05:13:21;;;;;;;;;;;17.40;99.90;;;;;;5093326;28;20003;-93
2023/08/05 05:15:52;;;;;;;;;;;17.40;99.90;;;;;;5076538;28;19952;-92
2023/08/05 05:18:23;;;;;;;;;;;17.40;99.90;;;;;;5093013;28;20355;-91
2023/08/05 05:21:00;;;;;;;;;;;;;;;;;;;;;
2023/08/05 05:23:26;;;;;;;;;;;17.40;99.90;;;;;;5093599;28;20290;-91
2023/08/05 05:26:01;;;;;;;;;;;17.40;99.90;;;;;;5097180;28;20002;-92
2023/08/05 05:28:49;;;;;;;;;;;17.40;99.90;;;;;;5092938;28;19939;-92
2023/08/05 05:31:20;;;;;;;;;;;17.40;99.90;;;;;;5080485;28;19962;-92
2023/08/05 05:33:58;;;;;;;;;;;;;;;;;;;;;
2023/08/05 05:39:15;;;;;;;;;;;17.40;99.90;;;;;;5098084;28;19908;-92
2023/08/05 05:41:48;;;;;;;;;;;17.40;99.90;;;;;;5080504;28;19916;-92
2023/08/05 05:44:26;;;;;;;;;;;;;;;;;;;;;
2023/08/05 05:46:58;;;;;;;;;;;17.40;99.90;;;;;;5096831;28;19912;-92
2023/08/05 05:53:16;;;;;;;;;;;17.40;99.90;;;;;;5083886;28;19915;-93
2023/08/05 05:56:14;;;;;;;;;;;17.40;99.90;;;;;;5093687;28;19915;-92
2023/08/05 05:58:43;;;;;;;;;;;17.40;99.90;;;;;;5094565;28;19908;-92
2023/08/05 06:01:19;;;;;;;;;;;17.40;99.90;;;;;;5096615;28;19990;-92
2023/08/05 06:03:55;;;;;;;;;;;;;;;;;;;;;
2023/08/05 06:06:52;;;;;;;;;;;;;;;;;;;;;
2023/08/05 06:09:33;;;;;;;;;;;17.40;99.90;;;;;;5096737;28;19909;-92
2023/08/05 06:15:07;;;;;;;;;;;17.40;99.90;;;;;;5090210;28;19909;-93
2023/08/05 06:17:56;;;;;;;;;;;17.40;99.90;;;;;;5095706;28;19908;-92
2023/08/05 06:20:45;;;;;;;;;;;17.40;99.90;;;;;;5082041;28;20011;-93
2023/08/05 06:26:22;;;;;;;;;;;;;;;;;;;;;
2023/08/05 07:07:41;;;;;;;;;;;;;;;;;;;;;
2023/08/05 07:20:19;;;;;;;;;;;17.50;99.90;;;;;;4864092;29;19912;-91
2023/08/05 07:23:30;;;;;;;;;;;;;;;;;;;;;
2023/08/05 07:26:22;;;;;;;;;;;17.50;99.90;;;;;;4861772;29;20385;-94
2023/08/05 07:38:10;;;;;;;;;;;;;;;;;;;;;
2023/08/05 07:40:33;;;;;;;;;;;17.50;99.90;;;;;;4969618;28;20021;-91
2023/08/05 07:43:14;;;;;;;;;;;17.70;99.90;;;;;;4956991;28;19918;-90
2023/08/05 07:45:40;;;;;;;;;;;17.70;99.90;;;;;;5014139;28;20015;-92
2023/08/05 07:48:08;;;;;;;;;;;17.70;99.90;;;;;;5094188;28;20008;-91
2023/08/05 07:50:42;;;;;;;;;;;17.80;99.90;;;;;;5094361;28;19962;-91
2023/08/05 07:56:24;;;;;;;;;;;17.80;99.90;;;;;;5077018;28;19916;-92
2023/08/05 08:11:59;;;;;;;;;;;17.80;99.90;;;;;;4956477;28;19918;-85
2023/08/05 08:14:24;;;;;;;;;;;17.80;99.90;;;;;;5010543;28;19946;-83
2023/08/05 08:16:50;;;;;;;;;;;17.80;99.90;;;;;;5092793;28;19916;-82
2023/08/05 08:28:56;;;;;;;;;;;;;;;;;;;;;
2023/08/05 08:31:29;;;;;;;;;;;18.10;99.90;;;;;;5094999;28;19908;-92
2023/08/05 08:33:56;;;;;;;;;;;18.20;99.90;;;;;;5093756;28;20301;-91
2023/08/05 08:36:24;;;;;;;;;;;18.20;99.90;;;;;;5093954;28;19908;-92
2023/08/05 08:38:52;;;;;;;;;;;18.20;99.90;;;;;;5093356;28;19954;-93
2023/08/05 08:41:27;;;;;;;;;;;18.20;99.90;;;;;;5093431;28;19969;-92
2023/08/05 08:44:16;;;;;;;;;;;18.10;99.90;;;;;;5093252;28;19912;-93
2023/08/05 08:46:46;;;;;;;;;;;18.10;99.90;;;;;;5111738;28;19920;-92
2023/08/05 08:49:16;;;;;;;;;;;18.10;99.90;;;;;;5096907;28;19908;-92
2023/08/05 08:51:46;;;;;;;;;;;18.00;99.90;;;;;;5096635;28;19908;-92
2023/08/05 08:54:13;;;;;;;;;;;18.10;99.90;;;;;;5096816;28;19990;-93
2023/08/05 08:56:39;;;;;;;;;;;18.10;99.90;;;;;;5096471;28;19924;-91
2023/08/05 08:59:09;;;;;;;;;;;18.10;99.90;;;;;;5096831;28;20314;-91
2023/08/05 09:01:51;;;;;;;;;;;;;;;;;;;;;
2023/08/05 09:04:36;;;;;;;;;;;18.20;99.90;;;;;;5115216;28;19922;-91
2023/08/05 09:07:05;;;;;;;;;;;18.20;99.90;;;;;;5100264;28;19962;-90
2023/08/05 09:09:33;;;;;;;;;;;18.20;99.90;;;;;;5100992;28;19939;-90
2023/08/05 09:11:58;;;;;;;;;;;18.20;99.90;;;;;;5100450;28;19955;-91
2023/08/05 09:14:31;;;;;;;;;;;18.30;99.90;;;;;;5100582;28;19942;-91
2023/08/05 09:17:00;;;;;;;;;;;18.30;99.90;;;;;;5100510;28;19912;-91
2023/08/05 09:19:28;;;;;;;;;;;18.40;99.90;;;;;;5100591;28;19912;-91
2023/08/05 09:21:58;;;;;;;;;;;18.40;99.90;;;;;;5100423;28;20279;-90
2023/08/05 09:24:34;;;;;;;;;;;;;;;;;;;;;
2023/08/05 09:27:00;;;;;;;;;;;18.50;99.90;;;;;;5118575;28;19915;-91
2023/08/05 09:29:29;;;;;;;;;;;18.60;99.90;;;;;;5100344;28;19912;-91
2023/08/05 09:32:00;;;;;;;;;;;18.70;99.90;;;;;;5118251;28;19922;-90
2023/08/05 09:34:59;;;;;;;;;;;18.80;99.90;;;;;;5100370;28;19912;-91
2023/08/05 09:37:26;;;;;;;;;;;18.90;99.90;;;;;;5117697;28;20359;-91
2023/08/05 09:39:55;;;;;;;;;;;18.90;99.90;;;;;;5117910;28;19914;-91
2023/08/05 09:42:24;;;;;;;;;;;19.00;99.90;;;;;;5083414;28;19912;-91
2023/08/05 09:48:03;;;;;;;;;;;19.10;99.90;;;;;;5096418;28;19975;-91
2023/08/05 09:53:38;;;;;;;;;;;19.10;99.90;;;;;;5118310;28;20371;-91
2023/08/05 09:56:15;;;;;;;;;;;19.30;99.90;;;;;;5099956;28;20022;-91
2023/08/05 09:58:42;;;;;;;;;;;19.30;99.90;;;;;;5099980;28;19915;-91
2023/08/05 10:01:08;;;;;;;;;;;19.40;99.90;;;;;;5099734;28;20004;-91
2023/08/05 10:03:42;;;;;;;;;;;19.40;99.90;;;;;;5099866;28;19940;-90
2023/08/05 10:06:08;;;;;;;;;;;19.50;99.90;;;;;;5099681;28;20383;-90
2023/08/05 10:08:40;;;;;;;;;;;19.50;99.90;;;;;;5100072;28;20309;-91
2023/08/05 10:11:10;;;;;;;;;;;19.50;99.90;;;;;;5099967;28;19915;-92
2023/08/05 10:13:40;;;;;;;;;;;19.50;99.90;;;;;;5100229;28;19908;-92
2023/08/05 10:16:24;;;;;;;;;;;19.50;99.90;;;;;;5100447;28;19908;-90
2023/08/05 10:18:53;;;;;;;;;;;19.50;99.90;;;;;;5101236;28;19953;-91
2023/08/05 10:21:37;;;;;;;;;;;19.50;99.90;;;;;;5099764;28;19908;-90
2023/08/05 10:24:05;;;;;;;;;;;19.50;99.90;;;;;;5099481;28;19912;-91
2023/08/05 10:26:43;;;;;;;;;;;19.50;99.90;;;;;;5099491;28;19916;-91
2023/08/05 10:29:25;;;;;;;;;;;19.60;99.90;;;;;;5099599;28;20279;-91
2023/08/05 10:31:53;;;;;;;;;;;19.70;99.90;;;;;;5099429;28;20014;-91
2023/08/05 10:34:19;;;;;;;;;;;19.70;99.90;;;;;;5099592;28;19908;-91
2023/08/05 10:36:48;;;;;;;;;;;19.60;99.90;;;;;;5099000;28;19914;-91
2023/08/05 10:39:45;;;;;;;;;;;19.70;99.90;;;;;;5099339;28;19990;-91
2023/08/05 10:42:40;;;;;;;;;;;19.70;99.90;;;;;;5090934;28;19918;-91
2023/08/05 10:45:06;;;;;;;;;;;19.70;99.90;;;;;;5098873;28;19927;-91
2023/08/05 10:47:34;;;;;;;;;;;19.70;99.90;;;;;;5099354;28;19912;-91
2023/08/05 10:50:00;;;;;;;;;;;19.80;99.90;;;;;;5098918;28;19908;-91
2023/08/05 10:52:26;;;;;;;;;;;19.90;99.90;;;;;;5098378;28;19908;-91
2023/08/05 10:54:55;;;;;;;;;;;19.90;99.90;;;;;;5098702;28;19973;-91
2023/08/05 10:57:33;;;;;;;;;;;19.90;99.90;;;;;;5098787;28;19915;-91
2023/08/05 11:00:05;;;;;;;;;;;19.90;99.90;;;;;;5098702;28;19912;-91
2023/08/05 11:02:41;;;;;;;;;;;19.90;99.90;;;;;;5098724;28;19914;-91
2023/08/05 11:05:07;;;;;;;;;;;20.00;99.90;;;;;;5098724;28;20351;-90
2023/08/05 11:07:35;;;;;;;;;;;20.00;99.90;;;;;;5098989;28;19907;-91
2023/08/05 11:10:07;;;;;;;;;;;20.00;99.90;;;;;;5098502;28;20377;-91
2023/08/05 11:12:33;;;;;;;;;;;20.00;99.90;;;;;;5098662;28;19914;-91
2023/08/05 11:15:02;;;;;;;;;;;20.00;99.90;;;;;;5098407;28;20274;-91
2023/08/05 11:17:28;;;;;;;;;;;20.00;99.90;;;;;;5116305;28;19907;-91
2023/08/05 11:19:55;;;;;;;;;;;20.00;99.90;;;;;;5098265;28;20426;-92
2023/08/05 11:22:26;;;;;;;;;;;20.10;99.90;;;;;;5097681;28;19912;-91
2023/08/05 11:25:02;;;;;;;;;;;20.10;99.90;;;;;;5098056;28;19916;-91
2023/08/05 11:27:37;;;;;;;;;;;20.20;99.90;;;;;;5097384;28;19908;-91
2023/08/05 11:30:38;;;;;;;;;;;20.30;99.90;;;;;;5097929;28;19912;-93
2023/08/05 11:33:16;;;;;;;;;;;20.30;99.90;;;;;;5086105;28;20434;-96
2023/08/05 11:35:46;;;;;;;;;;;20.40;99.90;;;;;;5085749;28;19912;-96
2023/08/05 11:38:17;;;;;;;;;;;20.50;99.90;;;;;;5082872;28;19919;-96
2023/08/05 11:40:49;;;;;;;;;;;20.40;99.90;;;;;;5099383;28;19907;-94
2023/08/05 11:43:25;;;;;;;;;;;20.50;99.90;;;;;;5097767;28;20015;-91
2023/08/05 11:46:01;;;;;;;;;;;;;;;;;;;;;
2023/08/05 11:48:28;;;;;;;;;;;20.40;99.90;;;;;;5084221;28;19925;-88
2023/08/05 11:51:00;;;;;;;;;;;20.40;99.90;;;;;;5073943;28;20003;-89
2023/08/05 11:53:26;;;;;;;;;;;20.40;99.90;;;;;;5068541;28;20334;-89
2023/08/05 11:56:11;;;;;;;;;;;20.30;99.90;;;;;;5083671;28;19912;-88
2023/08/05 11:58:47;;;;;;;;;;;;;;;;;;;;;
2023/08/05 12:01:15;;;;;;;;;;;20.20;99.90;;;;;;5096207;28;19915;-94
2023/08/05 12:03:43;;;;;;;;;;;20.10;99.90;;;;;;5077243;28;19956;-92
2023/08/05 12:06:26;;;;;;;;;;;;;;;;;;;;;
2023/08/05 12:09:01;;;;;;;;;;;19.60;99.90;;;;;;5095041;28;19919;-94
2023/08/05 12:11:26;;;;;;;;;;;19.30;99.90;;;;;;5092873;28;19931;-94
2023/08/05 12:14:00;;;;;;;;;;;19.00;99.90;;;;;;5073836;28;19916;-93
2023/08/05 12:16:28;;;;;;;;;;;18.80;99.90;;;;;;5083495;28;19912;-92
2023/08/05 12:18:59;;;;;;;;;;;18.70;99.90;;;;;;5094196;28;19937;-93
2023/08/05 12:21:30;;;;;;;;;;;18.50;99.90;;;;;;5093457;28;20020;-93
2023/08/05 12:24:04;;;;;;;;;;;18.50;99.90;;;;;;5064060;28;19928;-92
2023/08/05 12:26:37;;;;;;;;;;;18.40;99.90;;;;;;5082391;28;19943;-94
2023/08/05 12:29:05;;;;;;;;;;;18.30;99.90;;;;;;5078191;28;19912;-95
2023/08/05 12:31:35;;;;;;;;;;;18.30;99.90;;;;;;5066038;28;20011;-93
2023/08/05 12:34:06;;;;;;;;;;;18.30;99.90;;;;;;5079770;28;20010;-94
2023/08/05 12:36:43;;;;;;;;;;;18.20;99.90;;;;;;5101566;28;19919;-96
2023/08/05 12:39:17;;;;;;;;;;;18.20;99.90;;;;;;5088394;28;19912;-94
2023/08/05 12:41:53;;;;;;;;;;;18.20;99.90;;;;;;5090066;28;19970;-93
2023/08/05 12:44:26;;;;;;;;;;;18.20;99.90;;;;;;5096059;28;20050;-93
2023/08/05 12:47:00;;;;;;;;;;;18.20;99.90;;;;;;5076348;28;19927;-92
2023/08/05 12:49:26;;;;;;;;;;;18.20;99.90;;;;;;5077517;28;19923;-94
2023/08/05 12:52:21;;;;;;;;;;;18.20;99.90;;;;;;5093597;28;19908;-95
2023/08/05 12:55:09;;;;;;;;;;;18.20;99.90;;;;;;5093537;28;19912;-94
2023/08/05 12:57:42;;;;;;;;;;;18.20;99.90;;;;;;5079829;28;19908;-93
2023/08/05 13:00:11;;;;;;;;;;;18.30;99.90;;;;;;5093389;28;19908;-94
2023/08/05 13:02:42;;;;;;;;;;;18.30;99.90;;;;;;5076892;28;19958;-94
2023/08/05 13:05:10;;;;;;;;;;;18.30;99.90;;;;;;5093526;28;20406;-94
2023/08/05 13:07:43;;;;;;;;;;;18.30;99.90;;;;;;5093367;28;19923;-93
2023/08/05 13:10:19;;;;;;;;;;;18.30;99.90;;;;;;5092934;28;19908;-94
2023/08/05 13:12:44;;;;;;;;;;;18.30;99.90;;;;;;5093148;28;19908;-93
2023/08/05 13:15:25;;;;;;;;;;;18.30;99.90;;;;;;5092055;28;19923;-94
2023/08/05 13:17:53;;;;;;;;;;;18.30;99.90;;;;;;5093037;28;19947;-93
2023/08/05 13:20:40;;;;;;;;;;;18.40;99.90;;;;;;5092874;28;19915;-92
2023/08/05 13:23:04;;;;;;;;;;;18.40;99.90;;;;;;5093990;28;19916;-95
2023/08/05 13:25:30;;;;;;;;;;;18.40;99.90;;;;;;5092983;28;20399;-92
2023/08/05 13:27:59;;;;;;;;;;;18.30;99.90;;;;;;5093100;28;19919;-92
2023/08/05 13:30:24;;;;;;;;;;;18.30;99.90;;;;;;5092775;28;19908;-95
2023/08/05 13:32:52;;;;;;;;;;;18.30;99.90;;;;;;5092490;28;20276;-94
2023/08/05 13:35:28;;;;;;;;;;;18.30;99.90;;;;;;5076392;28;20356;-94
2023/08/05 13:37:53;;;;;;;;;;;18.30;99.90;;;;;;5093533;28;19946;-84
2023/08/05 13:40:21;;;;;;;;;;;18.30;99.90;;;;;;5093759;28;20307;-86
2023/08/05 13:42:47;;;;;;;;;;;18.30;99.90;;;;;;5094594;28;19909;-95
2023/08/05 13:45:16;;;;;;;;;;;18.20;99.90;;;;;;5089849;28;19927;-95
2023/08/05 13:47:44;;;;;;;;;;;18.20;99.90;;;;;;5093165;28;19912;-95
2023/08/05 13:50:12;;;;;;;;;;;18.20;99.90;;;;;;5076344;28;19913;-94
2023/08/05 13:52:40;;;;;;;;;;;18.10;99.90;;;;;;5096913;28;19923;-95
2023/08/05 13:55:10;;;;;;;;;;;18.00;99.90;;;;;;5079709;28;19912;-95
2023/08/05 13:57:39;;;;;;;;;;;18.00;99.90;;;;;;5080499;28;19924;-93
2023/08/05 14:00:05;;;;;;;;;;;17.90;99.90;;;;;;5074465;28;20288;-90
2023/08/05 14:02:39;;;;;;;;;;;17.90;99.90;;;;;;5078458;28;19912;-95
2023/08/05 14:05:08;;;;;;;;;;;17.90;99.90;;;;;;5059368;28;19949;-94
2023/08/05 14:07:54;;;;;;;;;;;17.90;99.90;;;;;;5076403;28;19909;-95
2023/08/05 14:10:31;;;;;;;;;;;17.90;99.90;;;;;;5076276;28;19908;-95
2023/08/05 14:13:04;;;;;;;;;;;17.90;99.90;;;;;;5076795;28;19909;-96
2023/08/05 14:18:43;;;;;;;;;;;17.90;99.90;;;;;;5068484;28;19956;-96
2023/08/05 14:21:18;;;;;;;;;;;17.90;99.90;;;;;;5058871;28;19919;-94
2023/08/05 14:23:46;;;;;;;;;;;18.00;99.90;;;;;;5076080;28;20016;-96
2023/08/05 14:26:16;;;;;;;;;;;17.90;99.90;;;;;;5075956;28;19913;-96
2023/08/05 14:28:58;;;;;;;;;;;;;;;;;;;;;
2023/08/05 14:31:50;;;;;;;;;;;17.90;99.90;;;;;;5080782;28;19987;-96
2023/08/05 14:34:39;;;;;;;;;;;17.90;99.90;;;;;;5083582;28;19916;-95
2023/08/05 14:37:23;;;;;;;;;;;17.80;99.90;;;;;;5081777;28;19912;-95
2023/08/05 14:40:03;;;;;;;;;;;17.80;99.90;;;;;;5077648;28;20353;-95
2023/08/05 14:42:41;;;;;;;;;;;17.70;99.90;;;;;;5077591;28;19908;-95
2023/08/05 14:45:20;;;;;;;;;;;17.60;99.90;;;;;;5063102;28;19931;-96
2023/08/05 14:48:05;;;;;;;;;;;17.50;99.90;;;;;;5076454;28;19912;-94
2023/08/05 14:50:51;;;;;;;;;;;17.50;99.90;;;;;;5075386;28;19913;-93
2023/08/05 14:53:19;;;;;;;;;;;17.40;99.90;;;;;;5075891;28;19967;-93
2023/08/05 14:55:54;;;;;;;;;;;17.30;99.90;;;;;;5058569;28;19966;-92
2023/08/05 15:01:42;;;;;;;;;;;17.20;99.90;;;;;;5068551;28;19919;-94
2023/08/05 15:04:10;;;;;;;;;;;17.20;99.90;;;;;;5061526;28;19923;-92
2023/08/05 15:06:38;;;;;;;;;;;17.20;99.90;;;;;;5075739;28;19938;-94
2023/08/05 15:09:04;;;;;;;;;;;17.20;99.90;;;;;;5075352;28;19912;-94
2023/08/05 15:14:15;;;;;;;;;;;17.20;99.90;;;;;;5076602;28;19931;-94
2023/08/05 15:16:43;;;;;;;;;;;17.20;99.90;;;;;;5075075;28;19913;-94
2023/08/05 15:19:11;;;;;;;;;;;17.20;99.90;;;;;;5075169;28;19912;-94
2023/08/05 15:21:59;;;;;;;;;;;17.20;99.90;;;;;;5075536;28;19908;-94
2023/08/05 15:24:27;;;;;;;;;;;17.20;99.90;;;;;;5074884;28;19952;-93
2023/08/05 15:26:55;;;;;;;;;;;17.20;99.90;;;;;;5058502;28;19917;-94
2023/08/05 15:29:21;;;;;;;;;;;17.20;99.90;;;;;;5074554;28;20335;-95
2023/08/05 15:31:47;;;;;;;;;;;17.10;99.90;;;;;;5075932;28;19909;-93
2023/08/05 15:34:15;;;;;;;;;;;17.10;99.90;;;;;;5099303;28;19897;-93
2023/08/05 15:36:46;;;;;;;;;;;17.10;99.90;;;;;;5099035;28;19912;-94
2023/08/05 15:39:11;;;;;;;;;;;17.10;99.90;;;;;;5098657;28;19908;-93
2023/08/05 15:41:39;;;;;;;;;;;17.10;99.90;;;;;;5077634;28;20271;-93
2023/08/05 15:44:05;;;;;;;;;;;17.10;99.90;;;;;;5074602;28;20015;-94
2023/08/05 15:46:31;;;;;;;;;;;17.10;99.90;;;;;;5091738;28;20018;-96
2023/08/05 15:48:56;;;;;;;;;;;17.20;99.90;;;;;;5078000;28;19908;-94
2023/08/05 15:51:22;;;;;;;;;;;17.20;99.90;;;;;;5077793;28;20359;-93
2023/08/05 15:53:48;;;;;;;;;;;17.10;99.90;;;;;;5077827;28;20248;-94
2023/08/05 15:56:14;;;;;;;;;;;17.10;99.90;;;;;;5077652;28;19908;-94
2023/08/05 15:58:39;;;;;;;;;;;17.20;99.90;;;;;;5077108;28;19909;-93
2023/08/05 16:01:24;;;;;;;;;;;17.20;99.90;;;;;;5077641;28;20003;-94
2023/08/05 16:03:59;;;;;;;;;;;;;;;;;;;;;
2023/08/05 16:06:31;;;;;;;;;;;17.20;99.90;;;;;;5095233;28;19912;-96
2023/08/05 16:08:59;;;;;;;;;;;17.30;99.90;;;;;;5077581;28;20356;-95
2023/08/05 16:11:26;;;;;;;;;;;17.30;99.90;;;;;;5061191;28;19912;-93
2023/08/05 16:13:52;;;;;;;;;;;17.40;99.90;;;;;;5076985;28;19908;-92
2023/08/05 16:16:18;;;;;;;;;;;17.40;99.90;;;;;;5077747;28;19957;-92
2023/08/05 16:18:46;;;;;;;;;;;17.40;99.90;;;;;;5077268;28;19942;-92
2023/08/05 16:21:15;;;;;;;;;;;17.40;99.90;;;;;;5077013;28;19951;-93
2023/08/05 16:23:44;;;;;;;;;;;17.50;99.90;;;;;;5077426;28;19969;-93
2023/08/05 16:26:11;;;;;;;;;;;17.50;99.90;;;;;;5077424;28;19954;-94
2023/08/05 16:28:39;;;;;;;;;;;17.50;99.90;;;;;;5078771;28;20411;-95
2023/08/05 16:31:07;;;;;;;;;;;17.60;99.90;;;;;;5077869;28;20344;-95
2023/08/05 16:33:36;;;;;;;;;;;17.60;99.90;;;;;;5076669;28;19923;-93
2023/08/05 16:36:05;;;;;;;;;;;17.60;99.90;;;;;;5077273;28;19957;-94
2023/08/05 16:38:33;;;;;;;;;;;17.60;99.90;;;;;;5076941;28;19958;-94
2023/08/05 16:40:59;;;;;;;;;;;17.60;99.90;;;;;;5076740;28;19915;-94
2023/08/05 16:43:27;;;;;;;;;;;17.60;99.90;;;;;;5076495;28;19916;-94
2023/08/05 16:46:04;;;;;;;;;;;17.60;99.90;;;;;;5073555;28;20364;-92
2023/08/05 16:48:30;;;;;;;;;;;17.60;99.90;;;;;;5073409;28;19934;-92
2023/08/05 16:50:56;;;;;;;;;;;17.60;99.90;;;;;;5073251;28;19909;-92
2023/08/05 16:53:21;;;;;;;;;;;17.60;99.90;;;;;;5073261;28;19912;-94
2023/08/05 16:55:54;;;;;;;;;;;17.60;99.90;;;;;;5073390;28;20371;-92
2023/08/05 16:58:22;;;;;;;;;;;17.60;99.90;;;;;;5091392;28;19908;-93
2023/08/05 17:00:48;;;;;;;;;;;17.50;99.90;;;;;;5073492;28;19908;-92
2023/08/05 17:03:14;;;;;;;;;;;17.50;99.90;;;;;;5073574;28;19917;-91
2023/08/05 17:05:39;;;;;;;;;;;17.50;99.90;;;;;;5056758;28;20441;-92
2023/08/05 17:08:05;;;;;;;;;;;17.40;99.90;;;;;;5073400;28;19931;-93
2023/08/05 17:10:31;;;;;;;;;;;17.40;99.90;;;;;;5073270;28;19912;-93
2023/08/05 17:12:59;;;;;;;;;;;17.40;99.90;;;;;;5072835;28;20261;-91
2023/08/05 17:15:32;;;;;;;;;;;17.40;99.90;;;;;;5074222;28;19908;-92
2023/08/05 17:18:07;;;;;;;;;;;17.40;99.90;;;;;;5056245;28;20011;-92
2023/08/05 17:20:38;;;;;;;;;;;17.40;99.90;;;;;;5057461;28;19913;-92
2023/08/05 17:23:11;;;;;;;;;;;17.40;99.90;;;;;;5056266;28;20344;-94
2023/08/05 17:25:43;;;;;;;;;;;17.40;99.90;;;;;;5058199;28;19999;-92
2023/08/05 17:28:11;;;;;;;;;;;17.40;99.90;;;;;;5061035;28;19919;-94
2023/08/05 17:30:37;;;;;;;;;;;17.40;99.90;;;;;;5076943;28;19908;-93